Sibbe, Netherlands
Current Conditions -  °F | °C
As of 10:55 PM on Sunday 25 Jan 2015 (Local Time) from EHBK Reporting Station
Drizzle Drizzle  
Wind Chill: 28°   Ceiling: 400
Heat Index: 36°   Visibility: 1.7mi
Dew Point: 36°   Wind: 10mph
Humidity: 100%   Direction: 200°SSW
Pressure: 30.33"   Gusts: NA
Location:  50.84°N, 5.83°E
Report Text: EHBK 252155Z AUTO 20009KT 2800 -DZ FEW002 BKN004 BKN006SCT015CB 02/02 Q1027
Loading
Personal Weather Stations






























Interactive Weather Map New forecast layout! Learn more

10-Day Weather Forecast

Advertisements
Track Severe Weather on mobile